createdAt,value
2022-10-22T00:02:21.739Z,5.53
2022-10-22T00:08:23.388Z,5.53
2022-10-22T00:14:24.978Z,5.50
2022-10-22T00:20:26.433Z,6.30
2022-10-22T00:26:27.926Z,5.50
2022-10-22T00:32:29.475Z,5.82
2022-10-22T00:38:30.980Z,5.80
2022-10-22T00:44:51.315Z,5.90
2022-10-22T00:50:56.384Z,5.88
2022-10-22T00:56:57.844Z,5.37
2022-10-22T01:02:59.289Z,5.55
2022-10-22T01:09:03.553Z,5.60
2022-10-22T01:15:24.220Z,5.20
2022-10-22T01:21:39.349Z,5.40
2022-10-22T01:27:58.148Z,5.23
2022-10-22T01:34:00.457Z,5.30
2022-10-22T01:40:02.236Z,5.20
2022-10-22T01:46:05.134Z,5.80
2022-10-22T01:52:19.256Z,5.63
2022-10-22T01:58:39.421Z,5.37
2022-10-22T02:04:40.835Z,5.72
2022-10-22T02:10:44.127Z,5.65
2022-10-22T02:16:46.517Z,5.30
2022-10-22T02:22:48.106Z,5.78
2022-10-22T02:29:06.058Z,5.00
2022-10-22T02:35:10.180Z,5.45
2022-10-22T02:41:11.797Z,5.57
2022-10-22T02:47:13.243Z,5.73
2022-10-22T02:53:14.692Z,5.97
2022-10-22T02:59:16.210Z,6.00
2022-10-22T03:05:17.643Z,5.90
2022-10-22T03:11:19.094Z,5.30
2022-10-22T03:17:20.554Z,5.67
2022-10-22T03:23:21.992Z,5.85
2022-10-22T03:29:25.956Z,5.93
2022-10-22T03:35:27.585Z,5.75
2022-10-22T03:41:29.177Z,5.72
2022-10-22T03:47:30.614Z,5.93
2022-10-22T03:53:32.046Z,5.57
2022-10-22T03:59:37.732Z,6.20
2022-10-22T04:05:39.219Z,6.20
2022-10-22T04:11:40.696Z,6.28
2022-10-22T04:17:42.432Z,6.10
2022-10-22T04:23:45.309Z,6.15
2022-10-22T04:29:46.830Z,6.20
2022-10-22T04:35:48.315Z,5.95
2022-10-22T04:41:49.803Z,6.45
2022-10-22T04:47:51.374Z,6.33
2022-10-22T04:53:52.911Z,6.35
2022-10-22T04:59:54.349Z,6.60
2022-10-22T05:05:55.777Z,6.78
2022-10-22T05:11:57.263Z,7.90
2022-10-22T05:17:58.731Z,6.47
2022-10-22T05:24:00.339Z,6.60
2022-10-22T05:30:01.772Z,6.77
2022-10-22T05:36:05.218Z,6.70
2022-10-22T05:42:06.688Z,6.57
2022-10-22T05:48:09.565Z,6.60
2022-10-22T05:54:15.407Z,7.00
2022-10-22T06:00:17.029Z,6.90
2022-10-22T06:06:20.015Z,6.85
2022-10-22T06:12:21.435Z,6.82
2022-10-22T06:18:22.926Z,6.60
2022-10-22T06:24:24.355Z,6.60
2022-10-22T06:30:25.867Z,6.57
2022-10-22T06:36:27.407Z,6.15
2022-10-22T06:42:29.059Z,5.75
2022-10-22T06:48:30.845Z,6.47
2022-10-22T06:54:32.404Z,6.60
2022-10-22T07:06:40.395Z,5.82
2022-10-22T07:12:41.998Z,5.68
2022-10-22T07:18:44.168Z,5.17
2022-10-22T07:24:45.640Z,5.47
2022-10-22T07:30:47.413Z,5.47
2022-10-22T07:36:49.393Z,5.18
2022-10-22T07:42:50.820Z,5.03
2022-10-22T07:48:52.326Z,4.90
2022-10-22T07:54:53.751Z,4.50
2022-10-22T08:00:56.275Z,5.20
2022-10-22T08:06:57.705Z,4.75
2022-10-22T08:12:59.390Z,3.83
2022-10-22T08:19:00.819Z,4.00
2022-10-22T08:25:02.263Z,3.28
2022-10-22T08:31:07.898Z,3.20
2022-10-22T08:37:10.497Z,3.00
2022-10-22T08:43:24.584Z,2.50
2022-10-22T08:49:27.479Z,2.43
2022-10-22T08:55:32.732Z,1.90
2022-10-22T09:01:38.497Z,2.00
2022-10-22T09:07:42.850Z,1.90
2022-10-22T09:13:45.313Z,1.33
2022-10-22T09:19:52.801Z,1.20
2022-10-22T09:25:55.376Z,1.90
2022-10-22T09:31:56.865Z,1.50
2022-10-22T09:37:59.038Z,1.42
2022-10-22T09:44:00.487Z,1.17
2022-10-22T09:50:20.674Z,1.20
2022-10-22T09:56:25.075Z,1.30
2022-10-22T10:02:44.974Z,1.13
2022-10-22T10:08:47.150Z,1.10
2022-10-22T10:15:00.962Z,1.30
2022-10-22T10:21:02.667Z,1.57
2022-10-22T10:27:04.195Z,1.50
2022-10-22T10:33:11.683Z,1.47
2022-10-22T10:39:18.673Z,1.10
2022-10-22T10:45:24.984Z,1.30
2022-10-22T10:51:33.117Z,1.37
2022-10-22T10:57:54.699Z,0.88
2022-10-22T11:04:02.477Z,0.90
2022-10-22T11:10:09.129Z,0.90
2022-10-22T11:16:31.082Z,1.00
2022-10-22T11:22:40.134Z,0.93
2022-10-22T11:28:45.767Z,1.33
2022-10-22T11:34:51.644Z,1.00
2022-10-22T11:41:19.507Z,0.70
2022-10-22T11:47:24.459Z,0.80
2022-10-22T11:53:25.879Z,0.70
2022-10-22T11:59:41.263Z,0.90
2022-10-22T12:05:43.247Z,0.70
2022-10-22T12:11:50.152Z,0.80
2022-10-22T12:17:56.427Z,0.85
2022-10-22T12:23:57.951Z,0.80
2022-10-22T12:30:00.301Z,1.20
2022-10-22T12:36:04.057Z,1.00
2022-10-22T12:42:06.267Z,1.00
2022-10-22T12:48:22.403Z,1.10
2022-10-22T12:54:31.977Z,1.00
2022-10-22T13:00:34.886Z,1.05
2022-10-22T13:06:37.095Z,1.47
2022-10-22T13:12:38.777Z,1.60
2022-10-22T13:18:40.748Z,1.50
2022-10-22T13:24:48.950Z,1.77
2022-10-22T13:30:54.715Z,1.40
2022-10-22T13:36:56.210Z,1.87
2022-10-22T13:42:57.693Z,1.40
2022-10-22T13:48:59.923Z,1.52
2022-10-22T13:55:01.794Z,1.87
2022-10-22T14:01:08.561Z,1.25
2022-10-22T14:07:17.190Z,1.37
2022-10-22T14:13:19.426Z,2.80
2022-10-22T14:19:20.958Z,1.80
2022-10-22T14:25:23.563Z,1.90
2022-10-22T14:31:25.197Z,2.08
2022-10-22T14:37:26.682Z,1.80
2022-10-22T14:43:29.783Z,1.83
2022-10-22T14:49:31.224Z,2.03
2022-10-22T14:55:32.752Z,2.20
2022-10-22T15:01:34.199Z,2.15
2022-10-22T15:07:35.890Z,2.17
2022-10-22T15:13:37.579Z,1.80
2022-10-22T15:19:39.020Z,1.90
2022-10-22T15:25:43.407Z,2.67
2022-10-22T15:31:49.165Z,3.15
2022-10-22T15:37:51.547Z,2.40
2022-10-22T15:43:53.002Z,2.63
2022-10-22T15:49:54.551Z,2.22
2022-10-22T15:55:55.983Z,2.80
2022-10-22T16:01:57.456Z,2.70
2022-10-22T16:07:58.952Z,2.43
2022-10-22T16:14:01.157Z,2.53
2022-10-22T16:20:02.702Z,2.67
2022-10-22T16:26:04.206Z,2.40
2022-10-22T16:32:06.142Z,2.80
2022-10-22T16:38:07.763Z,3.00
2022-10-22T16:44:09.810Z,2.45
2022-10-22T16:50:11.307Z,2.58
2022-10-22T16:56:13.482Z,2.40
2022-10-22T17:02:14.908Z,3.20
2022-10-22T17:08:16.448Z,3.20
2022-10-22T17:14:17.985Z,4.53
2022-10-22T17:20:19.790Z,3.75
2022-10-22T17:26:22.626Z,3.53
2022-10-22T17:32:24.162Z,3.92
2022-10-22T17:38:25.647Z,3.83
2022-10-22T17:44:27.113Z,4.10
2022-10-22T17:50:28.601Z,4.20
2022-10-22T17:56:30.287Z,4.07
2022-10-22T18:02:31.876Z,3.90
2022-10-22T18:08:33.422Z,4.27
2022-10-22T18:14:34.951Z,3.80
2022-10-22T18:20:36.402Z,3.08
2022-10-22T18:26:37.851Z,3.27
2022-10-22T18:32:39.466Z,3.90
2022-10-22T18:38:41.025Z,4.20
2022-10-22T18:44:42.517Z,4.18
2022-10-22T18:50:44.411Z,4.55
2022-10-22T18:56:46.089Z,4.40
2022-10-22T19:02:47.519Z,4.22
2022-10-22T19:08:51.304Z,4.33
2022-10-22T19:14:53.121Z,4.40
2022-10-22T19:20:58.589Z,4.50
2022-10-22T19:27:00.147Z,4.40
2022-10-22T19:33:01.615Z,4.40
2022-10-22T19:39:03.763Z,4.87
2022-10-22T19:45:06.572Z,3.83
2022-10-22T19:51:09.539Z,4.28
2022-10-22T19:57:14.037Z,4.27
2022-10-22T20:03:15.597Z,4.55
2022-10-22T20:09:17.131Z,4.77
2022-10-22T20:15:18.730Z,4.25
2022-10-22T20:21:20.561Z,7.35
2022-10-22T20:27:22.002Z,6.07
2022-10-22T20:33:23.558Z,4.97
2022-10-22T20:39:24.995Z,4.80
2022-10-22T20:45:27.332Z,4.47
2022-10-22T20:51:29.069Z,4.63
2022-10-22T20:57:30.613Z,4.60
2022-10-22T21:09:38.508Z,4.30
2022-10-22T21:15:39.938Z,4.15
2022-10-22T21:21:41.383Z,4.63
2022-10-22T21:27:42.827Z,4.80
2022-10-22T21:33:44.277Z,4.22
2022-10-22T21:39:45.714Z,4.60
2022-10-22T21:45:47.373Z,5.03
2022-10-22T21:51:48.803Z,4.97
2022-10-22T21:57:50.225Z,5.90
2022-10-22T22:03:52.546Z,5.63
2022-10-22T22:09:53.988Z,5.40
2022-10-22T22:15:59.029Z,5.10
2022-10-22T22:22:00.454Z,4.82
2022-10-22T22:28:01.907Z,4.83
2022-10-22T22:34:03.430Z,5.07
2022-10-22T22:40:05.127Z,5.00
2022-10-22T22:46:08.463Z,4.60
2022-10-22T22:52:09.939Z,4.82
2022-10-22T22:58:11.395Z,4.80
2022-10-22T23:04:16.139Z,4.50
2022-10-22T23:10:17.585Z,4.73
2022-10-22T23:16:20.147Z,4.57
2022-10-22T23:22:21.596Z,4.45
2022-10-22T23:28:24.019Z,4.87
2022-10-22T23:34:25.774Z,4.85
2022-10-22T23:40:27.203Z,4.80
2022-10-22T23:46:28.675Z,5.13
2022-10-22T23:52:30.104Z,5.20
2022-10-22T23:58:32.187Z,5.77
